Time;durP1;ratioP1;P1;durP2;ratioP2;P2;SDS_P1;SDS_P2;PMS_P1;PMS_P2;Temp;Humidity;BMP_temperature;BMP_pressure;BME280_temperature;BME280_humidity;BME280_pressure;Samples;Min_cycle;Max_cycle;Signal;HPM_P1;HPM_P2
2021/06/16 00:01:42;;;;;;;17.92;9.77;;;;;;;18.01;71.38;99508.91;5016071;28;20476;-62
2021/06/16 00:04:07;;;;;;;15.25;9.25;;;;;;;18.01;71.02;99509.72;5015180;28;20038;-62
2021/06/16 00:06:33;;;;;;;13.40;8.80;;;;;;;17.99;71.17;99513.81;5015928;28;20037;-62
2021/06/16 00:08:59;;;;;;;17.40;9.13;;;;;;;17.98;71.06;99504.88;5015104;28;20080;-62
2021/06/16 00:11:24;;;;;;;18.63;8.82;;;;;;;17.90;71.70;99505.50;5015688;28;20042;-62
2021/06/16 00:13:49;;;;;;;13.88;8.75;;;;;;;17.89;71.42;99501.16;5016190;28;20018;-61
2021/06/16 00:16:15;;;;;;;11.73;8.73;;;;;;;17.78;71.12;99499.59;5015641;28;20042;-62
2021/06/16 00:18:40;;;;;;;12.80;8.35;;;;;;;17.43;72.75;99502.28;5015286;28;20040;-62
2021/06/16 00:21:06;;;;;;;12.30;8.48;;;;;;;17.42;73.51;99510.66;5013331;28;20030;-62
2021/06/16 00:23:31;;;;;;;16.50;8.85;;;;;;;17.43;72.58;99504.19;5016097;28;20026;-63
2021/06/16 00:25:57;;;;;;;12.38;9.35;;;;;;;17.18;73.50;99499.72;5015478;28;20096;-61
2021/06/16 00:28:22;;;;;;;14.68;8.93;;;;;;;17.21;73.71;99499.16;5015763;28;20022;-61
2021/06/16 00:30:47;;;;;;;13.38;9.10;;;;;;;17.18;73.85;99499.72;5015462;28;20038;-61
2021/06/16 00:33:13;;;;;;;11.90;8.35;;;;;;;17.17;74.36;99501.63;5015958;28;20481;-62
2021/06/16 00:35:38;;;;;;;13.32;8.82;;;;;;;17.12;73.38;99507.03;5015364;28;20392;-61
2021/06/16 00:38:04;;;;;;;13.07;9.23;;;;;;;17.00;73.71;99496.56;5015767;28;20028;-61
2021/06/16 00:40:30;;;;;;;14.25;8.70;;;;;;;17.07;74.25;99495.44;5013865;28;20104;-62
2021/06/16 00:43:00;;;;;;;15.63;8.98;;;;;;;16.97;75.21;99499.84;5014431;28;20057;-61
2021/06/16 00:45:26;;;;;;;15.70;8.90;;;;;;;17.08;74.63;99492.47;5015497;28;20213;-61
2021/06/16 00:47:55;;;;;;;16.23;8.85;;;;;;;17.18;74.86;99491.59;5014393;28;20481;-61
2021/06/16 00:50:21;;;;;;;19.00;8.65;;;;;;;17.22;74.12;99490.75;5015151;28;20049;-61
2021/06/16 00:52:47;;;;;;;15.13;10.20;;;;;;;17.16;74.69;99502.69;5015514;28;20049;-62
2021/06/16 00:55:12;;;;;;;15.63;9.77;;;;;;;17.06;75.16;99499.25;5014883;28;20058;-61
2021/06/16 00:57:38;;;;;;;19.02;9.40;;;;;;;17.03;75.42;99498.72;5014105;28;20487;-61
2021/06/16 01:00:11;;;;;;;15.80;10.43;;;;;;;17.17;74.69;99495.38;5013526;28;20045;-63
2021/06/16 01:02:42;;;;;;;18.00;9.93;;;;;;;17.17;74.79;99496.22;5013938;28;20041;-62
2021/06/16 01:05:08;;;;;;;29.17;11.07;;;;;;;17.11;74.90;99499.22;5014751;28;20197;-63
2021/06/16 01:07:38;;;;;;;12.93;9.77;;;;;;;16.93;75.47;99500.66;5015037;28;20124;-63
2021/06/16 01:10:04;;;;;;;16.08;9.90;;;;;;;17.01;75.32;99498.16;4997418;28;20026;-63
2021/06/16 01:12:36;;;;;;;17.67;10.00;;;;;;;16.96;75.36;99495.50;5015128;28;20049;-62
2021/06/16 01:15:02;;;;;;;13.02;9.55;;;;;;;17.07;75.24;99490.81;5014844;28;20049;-63
2021/06/16 01:18:08;;;;;;;18.70;10.13;;;;;;;17.16;74.56;99493.78;5014880;28;20030;-62
2021/06/16 01:20:37;;;;;;;13.63;9.88;;;;;;;16.93;75.53;99490.63;5013934;28;20072;-62
2021/06/16 01:23:08;;;;;;;14.10;9.68;;;;;;;16.96;75.12;99484.66;5014973;28;20033;-63
2021/06/16 01:25:48;;;;;;;15.25;10.02;;;;;;;17.04;74.88;99486.78;5014514;28;20041;-63
2021/06/16 01:28:15;;;;;;;14.52;10.23;;;;;;;17.06;74.92;99483.00;5013690;28;20080;-62
2021/06/16 01:30:40;;;;;;;11.55;8.95;;;;;;;16.88;74.69;99487.94;5014095;28;20037;-63
2021/06/16 01:33:06;;;;;;;19.27;9.00;;;;;;;16.76;74.18;99496.34;5013713;28;20030;-63
2021/06/16 01:35:31;;;;;;;14.32;9.45;;;;;;;16.64;74.35;99486.94;5012891;28;20099;-61
2021/06/16 01:38:00;;;;;;;12.73;8.70;;;;;;;16.50;75.62;99476.69;5013285;28;20169;-61
2021/06/16 01:40:26;;;;;;;15.45;10.57;;;;;;;16.55;77.16;99481.28;5014130;28;20037;-63
2021/06/16 01:42:52;;;;;;;18.73;11.45;;;;;;;16.59;76.61;99477.72;5014333;28;20375;-62
2021/06/16 01:45:18;;;;;;;15.82;10.20;;;;;;;16.64;76.03;99481.53;4996310;28;20048;-62
2021/06/16 01:47:43;;;;;;;14.98;10.15;;;;;;;16.57;76.54;99482.63;5012983;28;20024;-62
2021/06/16 01:50:09;;;;;;;14.75;10.32;;;;;;;16.58;76.48;99473.41;4996111;28;20037;-61
2021/06/16 01:52:34;;;;;;;18.25;9.85;;;;;;;16.65;76.37;99464.19;5013030;28;20026;-61
2021/06/16 01:55:00;;;;;;;17.33;10.30;;;;;;;16.69;76.28;99473.38;5014193;28;20021;-61
2021/06/16 01:57:25;;;;;;;17.02;11.43;;;;;;;16.78;75.93;99469.06;5013700;28;20045;-61
2021/06/16 01:59:55;;;;;;;15.20;11.30;;;;;;;16.77;75.90;99470.09;5013725;28;20099;-61
2021/06/16 02:02:20;;;;;;;17.63;11.25;;;;;;;16.65;75.91;99461.47;4996263;28;20125;-62
2021/06/16 02:04:46;;;;;;;15.90;10.55;;;;;;;16.58;75.08;99468.00;5014141;28;20029;-63
2021/06/16 02:07:16;;;;;;;13.98;9.98;;;;;;;16.55;75.94;99468.56;5012281;28;20499;-62
2021/06/16 02:09:43;;;;;;;17.92;9.50;;;;;;;16.43;75.92;99465.34;5012676;28;20030;-62
2021/06/16 02:12:09;;;;;;;17.50;10.57;;;;;;;16.39;76.40;99464.28;4992706;28;20498;-63
2021/06/16 02:14:34;;;;;;;17.48;11.77;;;;;;;16.22;77.85;99461.88;5013775;28;20037;-61
2021/06/16 02:17:11;;;;;;;16.38;11.25;;;;;;;16.32;77.20;99456.44;5012317;28;20122;-61
2021/06/16 02:19:36;;;;;;;17.95;11.57;;;;;;;16.39;76.97;99458.88;5012708;28;20072;-61
2021/06/16 02:22:03;;;;;;;15.80;10.50;;;;;;;16.38;76.66;99451.84;5012217;28;20045;-61
2021/06/16 02:24:28;;;;;;;18.25;11.45;;;;;;;16.24;77.53;99450.81;5013692;28;20080;-62
2021/06/16 02:26:54;;;;;;;17.85;13.00;;;;;;;16.31;77.32;99448.63;5012025;28;20045;-61
2021/06/16 02:29:19;;;;;;;20.05;12.25;;;;;;;16.36;77.07;99445.91;5012712;28;20088;-61
2021/06/16 02:31:45;;;;;;;16.65;12.13;;;;;;;16.49;76.46;99441.78;5011857;28;20463;-61
2021/06/16 02:34:10;;;;;;;17.38;11.68;;;;;;;16.56;75.79;99448.53;5013561;28;20113;-61
2021/06/16 02:36:42;;;;;;;16.88;10.85;;;;;;;16.58;76.15;99440.94;5011911;28;20038;-61
2021/06/16 02:39:13;;;;;;;14.43;11.27;;;;;;;16.58;75.23;99443.66;5012315;28;20036;-62
2021/06/16 02:41:38;;;;;;;17.42;10.73;;;;;;;16.39;75.55;99438.03;5013029;28;20057;-62
2021/06/16 02:44:04;;;;;;;15.50;11.60;;;;;;;16.18;77.33;99442.69;5013460;28;20483;-62
2021/06/16 02:46:30;;;;;;;14.27;11.63;;;;;;;16.14;77.46;99433.50;5011674;28;20042;-62
2021/06/16 02:48:56;;;;;;;15.85;10.35;;;;;;;16.21;77.88;99435.13;5013295;28;20026;-62
2021/06/16 02:51:21;;;;;;;17.90;11.02;;;;;;;16.05;77.58;99443.28;5011758;28;20053;-62
2021/06/16 02:53:46;;;;;;;15.68;10.65;;;;;;;16.14;76.97;99440.81;4979362;28;20461;-62
2021/06/16 02:56:12;;;;;;;16.90;10.80;;;;;;;16.16;77.00;99433.25;5011553;28;20038;-62
2021/06/16 02:58:41;;;;;;;20.42;11.07;;;;;;;16.23;77.05;99431.06;5011961;28;20041;-61
2021/06/16 03:01:07;;;;;;;17.23;10.85;;;;;;;16.28;76.37;99435.66;5012910;28;20050;-62
2021/06/16 03:03:32;;;;;;;17.02;10.63;;;;;;;16.32;76.35;99434.00;4995682;28;20384;-62
2021/06/16 03:05:58;;;;;;;16.60;10.45;;;;;;;16.18;77.13;99431.06;4995216;28;20065;-62
2021/06/16 03:08:23;;;;;;;17.85;11.70;;;;;;;16.20;76.94;99439.72;5013142;28;20025;-62
2021/06/16 03:10:49;;;;;;;16.10;11.20;;;;;;;16.30;76.31;99436.16;5011312;28;20034;-62
2021/06/16 03:13:15;;;;;;;28.33;11.88;;;;;;;16.20;77.22;99438.91;5013417;28;20075;-62
2021/06/16 03:15:41;;;;;;;19.98;10.05;;;;;;;16.05;76.73;99427.06;5011626;28;20034;-62
2021/06/16 03:18:07;;;;;;;15.85;10.48;;;;;;;16.02;77.48;99427.56;5013381;28;20446;-62
2021/06/16 03:20:32;;;;;;;169.95;18.77;;;;;;;16.08;77.61;99431.91;5011585;28;20038;-62
2021/06/16 03:22:57;;;;;;;17.98;12.05;;;;;;;16.17;77.28;99432.97;4999991;28;20037;-62
2021/06/16 03:25:23;;;;;;;15.45;10.98;;;;;;;16.06;77.77;99428.66;5019403;28;20038;-62
2021/06/16 03:27:49;;;;;;;13.73;10.77;;;;;;;16.21;77.33;99427.00;5002021;28;20361;-61
2021/06/16 03:30:16;;;;;;;16.65;11.82;;;;;;;16.18;77.57;99423.78;5018038;28;20030;-61
2021/06/16 03:32:41;;;;;;;19.75;11.02;;;;;;;16.21;76.68;99432.44;5002013;28;20026;-61
2021/06/16 03:35:07;;;;;;;16.95;11.30;;;;;;;16.31;75.92;99429.69;5017923;28;20049;-62
2021/06/16 03:37:32;;;;;;;18.15;10.98;;;;;;;16.18;77.08;99431.06;5018227;28;20029;-62
2021/06/16 03:39:58;;;;;;;19.42;11.77;;;;;;;16.37;76.74;99424.00;5018467;28;20388;-61
2021/06/16 03:42:24;;;;;;;20.95;11.63;;;;;;;16.53;76.12;99427.44;5017814;28;20526;-62
2021/06/16 03:44:49;;;;;;;20.35;11.85;;;;;;;16.55;75.58;99422.56;5018096;28;20365;-62
2021/06/16 03:47:15;;;;;;;17.92;10.52;;;;;;;16.63;74.50;99417.69;5001439;28;20038;-62
2021/06/16 03:49:42;;;;;;;15.85;10.80;;;;;;;16.75;74.56;99418.97;5001725;28;20113;-62
2021/06/16 03:52:07;;;;;;;14.60;10.68;;;;;;;16.86;74.80;99419.75;5017571;28;20062;-62
2021/06/16 03:54:33;;;;;;;14.10;11.45;;;;;;;17.22;74.01;99419.50;5001957;28;20062;-62
2021/06/16 03:56:58;;;;;;;16.33;9.85;;;;;;;17.39;70.88;99422.63;5017733;28;20034;-62
2021/06/16 03:59:27;;;;;;;18.05;9.93;;;;;;;17.82;69.57;99420.16;5019037;28;20049;-62
2021/06/16 04:01:52;;;;;;;21.65;10.45;;;;;;;18.06;68.24;99408.53;5017683;28;20034;-62
2021/06/16 04:04:18;;;;;;;13.15;8.90;;;;;;;18.15;67.57;99411.44;5001618;28;20051;-62
2021/06/16 04:06:44;;;;;;;15.05;9.48;;;;;;;18.07;68.73;99405.53;5018740;28;20038;-62
2021/06/16 04:09:10;;;;;;;20.00;11.05;;;;;;;17.74;70.65;99407.16;5015898;28;20474;-63
2021/06/16 04:11:36;;;;;;;16.13;9.95;;;;;;;18.08;68.73;99411.75;5018701;28;20396;-62
2021/06/16 04:14:02;;;;;;;16.30;9.05;;;;;;;18.60;67.23;99401.94;5019191;28;20053;-62
2021/06/16 04:16:27;;;;;;;18.50;10.60;;;;;;;18.78;67.08;99403.09;5018730;28;20038;-62
2021/06/16 04:18:53;;;;;;;17.17;9.45;;;;;;;19.31;64.99;99410.19;5017906;28;20024;-63
2021/06/16 04:21:19;;;;;;;17.25;9.88;;;;;;;19.58;63.41;99409.47;5018677;28;20100;-62
2021/06/16 04:23:46;;;;;;;12.68;9.05;;;;;;;19.73;63.09;99403.00;5017663;28;20164;-62
2021/06/16 04:26:11;;;;;;;14.75;8.50;;;;;;;19.81;61.42;99402.31;5018705;28;20129;-62
2021/06/16 04:28:37;;;;;;;16.83;8.45;;;;;;;20.09;61.45;99405.06;5019018;28;20436;-62
2021/06/16 04:31:02;;;;;;;12.23;8.75;;;;;;;19.98;61.23;99405.25;5018464;28;20392;-62
2021/06/16 04:33:28;;;;;;;14.10;8.38;;;;;;;20.19;60.95;99394.81;5017177;28;20030;-62
2021/06/16 04:35:54;;;;;;;14.90;8.65;;;;;;;20.51;59.36;99398.50;5013819;28;20112;-62
2021/06/16 04:38:19;;;;;;;19.98;9.13;;;;;;;20.64;58.64;99395.03;5016312;28;20026;-62
2021/06/16 04:40:45;;;;;;;18.38;9.07;;;;;;;20.66;58.57;99397.41;5015533;28;20030;-62
2021/06/16 04:43:10;;;;;;;18.73;8.60;;;;;;;20.87;58.27;99390.44;5015625;28;20018;-62
2021/06/16 04:45:36;;;;;;;16.80;8.55;;;;;;;21.17;57.76;99398.19;5015449;28;20072;-62
2021/06/16 04:48:03;;;;;;;18.52;8.20;;;;;;;21.35;56.46;99393.69;5015822;28;20026;-62
2021/06/16 04:50:29;;;;;;;18.73;8.57;;;;;;;21.09;57.64;99386.09;5015248;28;20037;-63
2021/06/16 04:52:54;;;;;;;14.30;8.05;;;;;;;21.79;55.28;99392.06;5015779;28;20026;-63
2021/06/16 04:55:20;;;;;;;17.85;7.93;;;;;;;21.81;55.04;99384.38;5015247;28;20053;-62
2021/06/16 04:57:45;;;;;;;13.77;7.82;;;;;;;21.95;54.76;99385.09;5015895;28;20022;-62
2021/06/16 05:00:11;;;;;;;14.70;7.85;;;;;;;22.31;53.99;99387.66;5015304;28;20042;-62
2021/06/16 05:02:37;;;;;;;17.08;8.18;;;;;;;22.70;53.18;99380.53;5015460;28;20128;-62
2021/06/16 05:05:03;;;;;;;18.00;8.65;;;;;;;22.84;53.07;99388.59;5014900;28;20459;-63
2021/06/16 05:07:29;;;;;;;17.88;8.15;;;;;;;23.23;51.63;99384.09;5014013;28;20040;-62
2021/06/16 05:09:54;;;;;;;15.55;7.50;;;;;;;23.84;50.79;99386.78;5015139;28;20030;-63
2021/06/16 05:12:20;;;;;;;18.20;8.40;;;;;;;24.47;48.16;99392.47;5014427;28;20056;-62
2021/06/16 05:14:45;;;;;;;21.05;7.93;;;;;;;24.21;48.97;99395.31;5014913;28;20030;-62
2021/06/16 05:17:11;;;;;;;20.10;7.65;;;;;;;23.85;50.13;99389.16;5014377;28;20030;-63
2021/06/16 05:19:36;;;;;;;17.80;7.97;;;;;;;23.87;50.38;99381.44;5014778;28;20029;-62
2021/06/16 05:22:14;;;;;;;16.83;8.10;;;;;;;23.04;52.87;99377.03;5014272;28;20037;-63
2021/06/16 05:24:40;;;;;;;19.15;8.70;;;;;;;22.17;55.60;99382.28;5014977;28;20435;-62
2021/06/16 05:27:06;;;;;;;16.42;7.65;;;;;;;22.68;54.50;99381.97;5014291;28;20085;-63
2021/06/16 05:29:32;;;;;;;18.35;8.02;;;;;;;23.48;52.37;99380.53;5014858;28;20041;-62
2021/06/16 05:31:57;;;;;;;15.15;8.20;;;;;;;24.60;49.46;99382.41;5014306;28;20072;-62
2021/06/16 05:34:22;;;;;;;14.10;8.43;;;;;;;25.08;47.73;99386.56;5014680;28;20030;-62
2021/06/16 05:36:48;;;;;;;13.82;8.63;;;;;;;25.28;47.13;99383.00;5013861;28;20037;-63
2021/06/16 05:39:13;;;;;;;14.55;7.40;;;;;;;25.47;46.60;99390.75;5013301;28;20022;-63
2021/06/16 05:41:39;;;;;;;15.88;8.35;;;;;;;25.57;46.71;99384.84;5014075;28;20045;-63
2021/06/16 05:44:04;;;;;;;15.77;7.85;;;;;;;25.89;45.54;99379.69;5013377;28;20037;-63
2021/06/16 05:46:30;;;;;;;15.48;7.78;;;;;;;26.17;45.45;99385.31;5013644;28;20372;-63
2021/06/16 05:48:55;;;;;;;14.75;7.95;;;;;;;26.04;45.56;99376.28;5014270;28;20380;-62
2021/06/16 05:51:20;;;;;;;17.02;7.75;;;;;;;25.82;45.98;99379.41;5013920;28;20119;-62
2021/06/16 05:53:46;;;;;;;16.70;7.68;;;;;;;26.17;45.66;99381.75;5013210;28;20026;-64
2021/06/16 05:56:11;;;;;;;14.13;8.10;;;;;;;26.86;44.31;99391.81;5013977;28;20026;-63
2021/06/16 05:58:37;;;;;;;12.20;7.72;;;;;;;27.47;43.09;99379.00;5014290;28;20084;-63
2021/06/16 06:01:02;;;;;;;16.85;7.70;;;;;;;27.42;42.96;99382.00;5012384;28;20492;-63
2021/06/16 06:03:28;;;;;;;13.27;7.40;;;;;;;26.80;43.98;99382.19;5014589;28;20385;-63
2021/06/16 06:05:53;;;;;;;14.55;8.20;;;;;;;27.93;41.16;99379.44;5013850;28;20034;-63
2021/06/16 06:08:18;;;;;;;11.35;7.38;;;;;;;28.34;39.90;99388.31;5014126;28;20037;-63
2021/06/16 06:10:44;;;;;;;13.70;7.80;;;;;;;27.61;40.79;99379.38;5013574;28;20041;-63
2021/06/16 06:13:09;;;;;;;11.98;7.43;;;;;;;28.27;39.63;99383.41;5014235;28;20072;-63
2021/06/16 06:15:35;;;;;;;14.90;7.18;;;;;;;28.29;39.80;99377.56;5012256;28;20084;-63
2021/06/16 06:18:00;;;;;;;19.23;6.65;;;;;;;29.38;37.05;99385.88;4993547;28;20022;-63
2021/06/16 06:20:26;;;;;;;25.40;6.95;;;;;;;29.43;37.08;99385.56;4996186;28;20037;-63
2021/06/16 06:22:51;;;;;;;20.33;7.18;;;;;;;29.40;37.56;99383.53;5013909;28;20025;-63
2021/06/16 06:25:17;;;;;;;15.63;7.13;;;;;;;29.77;36.43;99380.28;5013677;28;20057;-63
2021/06/16 06:27:42;;;;;;;15.90;6.93;;;;;;;28.56;38.64;99384.13;5014205;28;20361;-62
2021/06/16 06:30:08;;;;;;;17.35;6.72;;;;;;;29.85;36.76;99381.22;5013532;28;20097;-63
2021/06/16 06:32:34;;;;;;;19.40;6.82;;;;;;;30.41;35.60;99383.34;4996384;28;20030;-62
2021/06/16 06:34:59;;;;;;;20.60;6.65;;;;;;;29.67;37.02;99369.84;5014045;28;20025;-63
2021/06/16 06:37:25;;;;;;;9.70;5.22;;;;;;;29.16;37.12;99378.34;5013263;28;20408;-61
2021/06/16 06:39:50;;;;;;;12.32;4.63;;;;;;;29.32;36.59;99372.72;5013968;28;20105;-62
2021/06/16 06:42:17;;;;;;;10.55;5.57;;;;;;;26.80;42.36;99367.63;5013421;28;20049;-64
2021/06/16 06:44:42;;;;;;;8.85;5.78;;;;;;;25.11;46.20;99362.03;5013702;28;20024;-62
2021/06/16 06:47:08;;;;;;;11.65;6.25;;;;;;;24.85;47.11;99364.16;5011991;28;20041;-61
2021/06/16 06:49:33;;;;;;;9.25;5.32;;;;;;;27.67;41.05;99361.44;4995915;28;20022;-61
2021/06/16 06:51:59;;;;;;;9.60;5.40;;;;;;;28.03;40.13;99365.16;5013116;28;20530;-61
2021/06/16 06:54:24;;;;;;;8.65;5.63;;;;;;;27.87;40.31;99364.34;5012236;28;20455;-61
2021/06/16 06:56:49;;;;;;;8.60;5.43;;;;;;;29.19;37.83;99355.53;5012299;28;20038;-61
2021/06/16 06:59:15;;;;;;;11.85;5.57;;;;;;;29.21;37.10;99353.22;5013242;28;20045;-62
2021/06/16 07:01:40;;;;;;;7.57;5.55;;;;;;;30.13;35.70;99356.03;5013033;28;20034;-62
2021/06/16 07:04:06;;;;;;;8.90;5.70;;;;;;;29.46;36.69;99356.44;5013657;28;20018;-62
2021/06/16 07:06:31;;;;;;;13.00;5.70;;;;;;;29.85;35.88;99354.41;5012778;28;20038;-61
2021/06/16 07:08:57;;;;;;;8.52;5.10;;;;;;;31.25;33.77;99356.41;5013326;28;20384;-61
2021/06/16 07:11:22;;;;;;;10.93;5.28;;;;;;;28.13;40.34;99350.81;5011741;28;20045;-62
2021/06/16 07:13:48;;;;;;;12.35;6.18;;;;;;;28.39;39.69;99353.00;5013394;28;20034;-62
2021/06/16 07:16:16;;;;;;;8.07;5.50;;;;;;;31.62;33.82;99346.50;5012350;28;20431;-61
2021/06/16 07:18:42;;;;;;;15.20;5.75;;;;;;;32.29;32.61;99345.50;5013477;28;20156;-62
2021/06/16 07:21:07;;;;;;;11.77;5.07;;;;;;;32.14;32.49;99355.69;5012585;28;20545;-61
2021/06/16 07:23:33;;;;;;;7.53;5.22;;;;;;;28.53;38.88;99346.22;5013319;28;20029;-63
2021/06/16 07:25:58;;;;;;;10.43;5.43;;;;;;;31.83;32.67;99345.91;5012724;28;20544;-64
2021/06/16 07:28:24;;;;;;;9.63;4.90;;;;;;;30.58;35.25;99332.22;5013405;28;20026;-63
2021/06/16 07:30:49;;;;;;;8.45;5.07;;;;;;;30.22;36.04;99328.91;5013196;28;20040;-63
2021/06/16 07:33:15;;;;;;;7.75;4.93;;;;;;;32.79;31.46;99338.28;5013312;28;20033;-63
2021/06/16 07:35:40;;;;;;;9.77;5.15;;;;;;;34.20;29.43;99342.13;5012159;28;20045;-63
2021/06/16 07:38:06;;;;;;;10.05;5.18;;;;;;;33.97;29.39;99340.53;5013304;28;20030;-62
2021/06/16 07:40:31;;;;;;;15.07;5.18;;;;;;;30.98;34.48;99330.78;5012972;28;20026;-63
2021/06/16 07:42:57;;;;;;;15.43;5.50;;;;;;;32.45;32.16;99329.34;5013147;28;20026;-63
2021/06/16 07:45:22;;;;;;;11.52;5.75;;;;;;;31.00;34.62;99328.41;5012558;28;20042;-63
2021/06/16 07:47:47;;;;;;;12.82;5.57;;;;;;;30.70;35.71;99332.00;5013585;28;20026;-63
2021/06/16 07:50:13;;;;;;;13.15;5.70;;;;;;;31.86;33.12;99328.53;5012704;28;20045;-62
2021/06/16 07:52:38;;;;;;;10.77;5.72;;;;;;;33.27;30.97;99324.19;5013132;28;20430;-62
2021/06/16 07:55:05;;;;;;;10.73;5.60;;;;;;;33.29;31.38;99326.56;5012419;28;20037;-63
2021/06/16 07:57:31;;;;;;;8.98;5.60;;;;;;;34.50;29.16;99328.59;5012716;28;20456;-63
2021/06/16 07:59:56;;;;;;;10.32;5.25;;;;;;;34.54;28.94;99329.34;5012351;28;20049;-63
2021/06/16 08:02:21;;;;;;;12.90;5.97;;;;;;;33.51;30.22;99319.06;5011270;28;20038;-63
2021/06/16 08:04:47;;;;;;;9.05;5.50;;;;;;;34.32;29.60;99309.16;5012577;28;20072;-63
2021/06/16 08:07:12;;;;;;;13.30;6.28;;;;;;;34.76;28.26;99309.81;5010875;28;20034;-62
2021/06/16 08:09:41;;;;;;;13.70;5.70;;;;;;;33.81;30.31;99301.25;5012285;28;20048;-63
2021/06/16 08:12:08;;;;;;;14.95;5.57;;;;;;;34.49;29.24;99313.06;5015907;28;20077;-63
2021/06/16 08:14:33;;;;;;;9.80;5.65;;;;;;;32.42;32.11;99311.50;5016292;28;20025;-63
2021/06/16 08:16:59;;;;;;;12.05;6.18;;;;;;;33.86;29.92;99301.63;5014481;28;20088;-63
2021/06/16 08:19:24;;;;;;;12.15;6.05;;;;;;;32.74;31.65;99310.91;5016141;28;20026;-63
2021/06/16 08:21:49;;;;;;;11.15;5.55;;;;;;;33.56;30.80;99304.81;5015888;28;20049;-63
2021/06/16 08:24:15;;;;;;;12.95;5.90;;;;;;;34.71;28.73;99302.69;5014929;28;20026;-63
2021/06/16 08:26:40;;;;;;;13.18;5.93;;;;;;;35.25;28.87;99310.81;5016130;28;20037;-63
2021/06/16 08:29:06;;;;;;;14.25;5.50;;;;;;;35.62;27.55;99307.38;5016144;28;20037;-63
2021/06/16 08:31:31;;;;;;;10.18;5.72;;;;;;;35.75;27.56;99309.69;5015503;28;20084;-65
2021/06/16 08:33:57;;;;;;;12.68;6.15;;;;;;;33.84;29.81;99297.66;5016355;28;20030;-62
2021/06/16 08:36:22;;;;;;;13.20;5.72;;;;;;;33.78;30.45;99307.59;5015737;28;20451;-62
2021/06/16 08:38:47;;;;;;;13.65;6.50;;;;;;;33.05;32.27;99298.34;5014793;28;20034;-62
2021/06/16 08:41:13;;;;;;;9.68;6.15;;;;;;;34.47;29.49;99301.53;5015784;28;20137;-62
2021/06/16 08:43:41;;;;;;;17.13;6.40;;;;;;;34.34;29.76;99303.19;4998059;28;20018;-61
2021/06/16 08:46:09;;;;;;;25.60;7.07;;;;;;;32.85;31.86;99300.66;5015401;28;20042;-62
2021/06/16 08:48:36;;;;;;;12.83;6.47;;;;;;;30.49;35.61;99293.00;5015921;28;20041;-64
2021/06/16 08:51:01;;;;;;;12.50;6.65;;;;;;;31.49;34.81;99294.16;5015292;28;20085;-62
2021/06/16 08:53:27;;;;;;;13.85;6.63;;;;;;;32.10;33.67;99293.88;5015563;28;20034;-63
2021/06/16 08:55:52;;;;;;;10.32;6.50;;;;;;;33.40;31.58;99291.28;5014166;28;20034;-61
2021/06/16 08:58:18;;;;;;;12.77;6.45;;;;;;;33.62;31.25;99285.75;5015553;28;20380;-63
2021/06/16 09:00:43;;;;;;;13.38;7.03;;;;;;;33.08;32.13;99291.22;5013622;28;20037;-63
2021/06/16 09:03:09;;;;;;;11.13;6.05;;;;;;;34.57;29.86;99288.78;5014197;28;20476;-63
2021/06/16 09:05:38;;;;;;;10.30;6.65;;;;;;;31.56;34.67;99285.13;5014933;28;20045;-62
2021/06/16 09:08:15;;;;;;;19.25;7.13;;;;;;;31.66;34.26;99291.94;4998263;28;20076;-61
2021/06/16 09:10:48;;;;;;;10.75;7.10;;;;;;;32.08;33.46;99287.94;5014739;28;20554;-62
2021/06/16 09:13:30;;;;;;;11.73;7.47;;;;;;;29.46;39.62;99271.66;5015125;28;20112;-61
2021/06/16 09:15:56;;;;;;;12.35;7.28;;;;;;;29.91;37.87;99283.06;5013408;28;20034;-61
2021/06/16 09:18:22;;;;;;;9.57;6.65;;;;;;;32.42;33.25;99282.97;5014045;28;20101;-61
2021/06/16 09:20:48;;;;;;;11.07;6.45;;;;;;;32.85;32.65;99283.19;5014057;28;20088;-61
2021/06/16 09:23:15;;;;;;;14.77;7.07;;;;;;;33.91;31.41;99267.09;5015185;28;20087;-61
2021/06/16 09:25:41;;;;;;;11.82;7.13;;;;;;;31.84;34.01;99281.00;5014725;28;20063;-61
2021/06/16 09:28:06;;;;;;;10.43;7.07;;;;;;;30.66;36.85;99270.31;5014052;28;20033;-62
2021/06/16 09:30:42;;;;;;;9.18;6.07;;;;;;;31.82;34.76;99278.59;5014563;28;20092;-63
2021/06/16 09:33:12;;;;;;;12.30;6.22;;;;;;;33.14;32.55;99272.97;5015163;28;20026;-63
2021/06/16 09:35:39;;;;;;;10.80;6.43;;;;;;;33.19;31.61;99275.38;5014664;28;20053;-63
2021/06/16 09:38:07;;;;;;;8.70;6.88;;;;;;;33.51;31.90;99274.63;5014861;28;20376;-64
2021/06/16 09:40:40;;;;;;;9.48;6.45;;;;;;;32.90;32.94;99268.13;5014575;28;20037;-63
2021/06/16 09:43:07;;;;;;;9.45;6.57;;;;;;;33.45;32.22;99271.44;5014978;28;20033;-63
2021/06/16 09:45:33;;;;;;;13.73;6.35;;;;;;;33.93;31.47;99264.72;5014309;28;20030;-63
2021/06/16 09:47:58;;;;;;;9.40;6.28;;;;;;;32.80;33.45;99273.28;5014602;28;20436;-63
2021/06/16 09:50:25;;;;;;;13.23;6.72;;;;;;;33.91;31.17;99258.75;4996821;28;20392;-62
2021/06/16 09:52:51;;;;;;;12.20;6.88;;;;;;;33.03;33.22;99261.88;5014542;28;20349;-63
2021/06/16 09:55:28;;;;;;;12.45;6.43;;;;;;;32.41;34.08;99260.00;5013130;28;20128;-62
2021/06/16 09:58:07;;;;;;;10.18;6.70;;;;;;;33.46;32.78;99261.13;5014432;28;20432;-62
2021/06/16 10:00:34;;;;;;;15.70;6.30;;;;;;;32.65;34.31;99258.56;5013862;28;20042;-62
2021/06/16 10:03:10;;;;;;;11.38;6.15;;;;;;;31.73;33.66;99256.00;5014145;28;20029;-62
2021/06/16 10:05:55;;;;;;;16.73;6.05;;;;;;;31.90;34.00;99249.78;5013703;28;20030;-62
2021/06/16 10:08:24;;;;;;;9.35;6.00;;;;;;;32.73;33.54;99244.72;5013972;28;20074;-61
2021/06/16 10:10:51;;;;;;;6.75;5.90;;;;;;;33.36;31.38;99253.59;5010419;28;20105;-62
2021/06/16 10:13:19;;;;;;;12.57;6.50;;;;;;;32.24;32.58;99238.50;5013952;28;20038;-61
2021/06/16 10:15:45;;;;;;;7.78;6.35;;;;;;;30.71;36.76;99233.22;5012510;28;20435;-62
2021/06/16 10:18:10;;;;;;;12.20;6.60;;;;;;;31.36;35.96;99229.94;5012631;28;20025;-61
2021/06/16 10:20:35;;;;;;;11.05;6.68;;;;;;;30.69;35.53;99230.81;4995747;28;20044;-61
2021/06/16 10:23:01;;;;;;;10.05;6.45;;;;;;;30.61;36.01;99228.38;5012695;28;20072;-62
2021/06/16 10:25:26;;;;;;;11.90;6.38;;;;;;;30.95;35.75;99226.38;5013531;28;20041;-62
2021/06/16 10:27:56;;;;;;;11.65;7.22;;;;;;;30.80;36.76;99235.66;5013635;28;20045;-62
2021/06/16 10:30:23;;;;;;;11.93;6.70;;;;;;;30.73;35.99;99231.66;5012020;28;20034;-61
2021/06/16 10:32:49;;;;;;;11.45;6.88;;;;;;;30.79;36.03;99223.03;5011384;28;20488;-62
2021/06/16 10:35:18;;;;;;;11.77;6.85;;;;;;;29.74;38.81;99223.59;5013398;28;20025;-61
2021/06/16 10:37:44;;;;;;;10.10;6.70;;;;;;;29.50;39.16;99223.97;5013662;28;20133;-62
2021/06/16 10:40:13;;;;;;;17.02;7.35;;;;;;;31.33;35.45;99224.38;5013438;28;20045;-62
2021/06/16 10:43:09;;;;;;;15.35;6.43;;;;;;;32.55;33.01;99219.66;5013963;28;20053;-62
2021/06/16 10:45:39;;;;;;;7.40;5.90;;;;;;;32.37;32.16;99225.09;5012967;28;20034;-62
2021/06/16 10:48:06;;;;;;;10.82;6.40;;;;;;;31.01;33.32;99219.34;5012301;28;20026;-62
2021/06/16 10:50:46;;;;;;;14.60;6.28;;;;;;;31.93;33.64;99217.75;5012523;28;20026;-61
2021/06/16 10:53:19;;;;;;;11.52;6.38;;;;;;;30.05;35.81;99214.19;5013059;28;20026;-61
2021/06/16 10:58:25;;;;;;;13.15;6.10;;;;;;;33.11;32.06;99217.47;5013336;28;20048;-62
2021/06/16 11:01:10;;;;;;;7.53;5.45;;;;;;;31.55;33.13;99206.78;5012631;28;20046;-62
2021/06/16 11:03:51;;;;;;;8.70;5.97;;;;;;;32.30;32.33;99209.25;5013068;28;20045;-62
2021/06/16 11:06:46;;;;;;;10.93;5.82;;;;;;;33.42;31.82;99205.56;5012818;28;20034;-63
2021/06/16 11:09:14;;;;;;;12.23;6.43;;;;;;;31.96;32.97;99211.44;5004344;28;20049;-62
2021/06/16 11:11:52;;;;;;;10.75;6.45;;;;;;;30.63;35.06;99199.16;5011185;28;20030;-62
2021/06/16 11:14:33;;;;;;;11.52;6.50;;;;;;;30.57;35.20;99197.88;5013131;28;20045;-64
2021/06/16 11:17:01;;;;;;;11.30;6.70;;;;;;;30.17;36.87;99193.03;5012474;28;20041;-62
2021/06/16 11:19:27;;;;;;;13.10;6.83;;;;;;;30.09;36.82;99192.91;5013140;28;20460;-62
2021/06/16 11:21:57;;;;;;;10.57;7.00;;;;;;;29.56;37.84;99187.41;5012501;28;20030;-62
2021/06/16 11:25:01;;;;;;;10.50;6.93;;;;;;;30.34;36.06;99192.47;5011798;28;20023;-62
2021/06/16 11:27:52;;;;;;;9.55;6.13;;;;;;;31.29;34.23;99176.47;5012500;28;20042;-62